MENU
  Tipster Buy
Tips
Recent
Form
Tips ROI
(%)
Longest
Losing
Streak
Strike
Rate
Points Profit
(90 Days)
1. -Meridian-   193 28% 16 30% 54.88
2. Billy121only   323 16% 32 10% 50.83
3. -Race2Place-   338 14% 13 31% 47.29
All bets placed at your own risk | Profits @ Betfair SPs
 
Login / Register
Tipster League Tables
* 90 Day  - Back Tips/Lay Tips
* 120 Day - Back Tips/Lay Tips
* 365 Day - Back Tips/Lay Tips
* Sep      - Back Tips/Lay Tips
Today's Racing Tips
* Tips Available Today
* Todays Racing Fixtures
* Buy Horse Racing Tips
* Free Horse Racing Tips
Info & Services
* Horse Racing
* Betting

Tipping League > Horse Racing > Horse Racing Tipsters > +Centaur+ Back Tips : Lay Tips | Profile

Access Tips For +Centaur+

Tipster First Race Back Tips Lay Tips Cost Buy Online Phonenumber
(£per min)
Sorry, +Centaur+ has no tips available yet.

Recent Winners

The winners below have been given in the last 30 days.
Selection Betfair SP Racecourse Date and Time

Recent Form Of +Centaur+

The default form guide shows you how the tipping service provided by +Centaur+ has performed over their last 15 tips. Alternatively, click on a month below to see how the tipster performed over the whole of that month.

Oct 2019Sep 2019Aug 2019Jul 2019Jun 2019May 2019
Apr 2019Mar 2019Feb 2019Jan 2019Dec 2018Nov 2018

How would you like to calculate tipster profit stats?
Staking Plan 1 point level stakes Tipsters advised stakes
Type of bet
Min/Max Odds: 
Selection Type: 
 
Race Date / Time Course Horse Market NAP Stake Betfair SP (W) Betfair SP (P) Level Profit Bet Over Min Odds Bet Under Max Odds Advised Profit
31/10/2018 18:15 KEMP Divine Mess.. WIN   1 9.00 3.40 -1 - - -1
31/10/2018 18:15 KEMP Narjes PLACE   1 15.69 3.60 -1 - - -1
31/10/2018 18:15 KEMP Divine Mess.. PLACE   1 9.00 3.40 -1 - - -1
31/10/2018 18:15 KEMP Narjes WIN   1 15.69 3.60 -1 - - -1
31/10/2018 14:40 NOTT Dr Doro WIN   1 4.43 1.65 -1 - - -1
31/10/2018 14:40 NOTT Dr Doro PLACE   1 4.43 1.65 -1 - - -1
31/10/2018 13:30 Fake Jacbequick PLACE   1 6.29 2.32 1.32 - - 1.32
31/10/2018 13:30 Fake Jacbequick WIN   1 6.29 2.32 5.29 - - 5.29
30/10/2018 19:45 Wolv Reeth PLACE   1 3.17 1.49 -1 - - -1
30/10/2018 19:45 Wolv Reeth WIN   1 3.17 1.49 -1 - - -1
30/10/2018 18:45 Wolv Anna Jammeela PLACE   1 13.50 4.60 -1 - - -1
30/10/2018 18:45 Wolv Anna Jammeela WIN   1 13.50 4.60 -1 - - -1
29/10/2018 19:45 Chel Song of Sum.. PLACE   1 17.09 4.20 -1 - - -1
29/10/2018 19:45 Chel Song of Sum.. WIN   1 17.09 4.20 -1 - - -1
29/10/2018 19:15 Chel Coachella PLACE   1 5.50 2.02 1.02 - - 1.02
29/10/2018 19:15 Chel Coachella WIN   1 5.50 2.02 4.5 - - 4.5
29/10/2018 18:15 Chel Salute The .. PLACE   1 2.85 1.54 0.54 - - 0.54
29/10/2018 18:15 Chel Salute The .. WIN   1 2.85 1.54 1.85 - - 1.85
29/10/2018 17:45 Chel Landue WIN   1 3.24 1.50 2.24 - - 2.24
29/10/2018 17:45 Chel Landue PLACE   1 3.24 1.50 0.5 - - 0.5
29/10/2018 16:15 LEIC Canfords Joy WIN   1 17.35 5.27 -1 - - -1
29/10/2018 16:15 LEIC Canfords Joy PLACE   1 17.35 5.27 -1 - - -1
29/10/2018 16:00 Redc Supaulette WIN   1 20.19 3.72 -1 - - -1
29/10/2018 16:00 Redc Supaulette PLACE   1 20.19 3.72 -1 - - -1
29/10/2018 15:25 Redc Vallarta PLACE   1 18.45 3.94 -1 - - -1
29/10/2018 15:25 Redc Vallarta WIN   1 18.45 3.94 -1 - - -1
29/10/2018 15:15 AYR Storm Nelson PLACE   1 19.10 5.10 4.1 - - 4.1
29/10/2018 15:15 AYR Storm Nelson WIN   1 19.10 5.10 18.1 - - 18.1
28/10/2018 15:35 AINT Molly The D.. WIN   1 12.15 3.45 11.15 - - 11.15
28/10/2018 15:35 AINT Molly The D.. PLACE   1 12.15 3.45 2.45 - - 2.45
28/10/2018 15:00 AINT Value At Risk PLACE   1 9.80 2.50 -1 - - -1
28/10/2018 15:00 AINT Value At Risk WIN   1 9.80 2.50 -1 - - -1
26/10/2018 20:15 KEMP Treasure Me WIN   1 9.29 3.45 -1 - - -1
26/10/2018 20:15 KEMP Treasure Me PLACE   1 9.29 3.45 2.45 - - 2.45
26/10/2018 17:30 CHEL Noah And Th.. PLACE   1 26.49 5.39 -1 - - -1
26/10/2018 17:30 CHEL Malachite PLACE   1 11.50 3.10 -1 - - -1
26/10/2018 17:30 CHEL Noah And Th.. WIN   1 26.49 5.39 -1 - - -1
26/10/2018 17:30 CHEL Malachite WIN   1 11.50 3.10 -1 - - -1
26/10/2018 17:20 DONC Mearing WIN   1 11.00 2.50 -1 - - -1
26/10/2018 17:20 DONC Mearing PLACE   1 11.00 2.50 1.5 - - 1.5
26/10/2018 17:10 NEWB Picture Pai.. PLACE   1 13.00 4.40 -1 - - -1
26/10/2018 17:10 NEWB Picture Pai.. WIN   1 13.00 4.40 -1 - - -1
26/10/2018 16:45 DONC Big Kitten PLACE   1 6.38 2.35 -1 - - -1
26/10/2018 16:45 DONC Big Kitten WIN   1 6.38 2.35 -1 - - -1
26/10/2018 16:10 DONC Winds Of Fire PLACE   1 5.21 1.99 0.99 - - 0.99
26/10/2018 16:10 DONC Winds Of Fire WIN   1 5.21 1.99 -1 - - -1
26/10/2018 16:00 NEWB Eraad WIN   1 32.00 6.31 -1 - - -1
26/10/2018 16:00 NEWB Eraad PLACE   1 32.00 6.31 -1 - - -1
26/10/2018 15:35 DONC Captain Jam.. WIN   1 9.40 3.33 -1 - - -1
26/10/2018 15:35 DONC Captain Jam.. PLACE   1 9.40 3.33 -1 - - -1
24/10/2018 20:30 Chel Understory PLACE   1 275.02 40.00 -1 - - -1
24/10/2018 20:30 Chel Understory WIN   1 275.02 40.00 -1 - - -1
24/10/2018 20:15 NEWC Twiggy EACH WAY   0.5 18.71 5.00 -1 - - -1
24/10/2018 20:00 Chel Plucky Dip WIN   1 3.84 1.64 -1 - - -1
24/10/2018 20:00 Chel Plucky Dip PLACE   1 3.84 1.64 -1 - - -1
24/10/2018 17:30 NEWM Khibrah EACH WAY   0.5 75.00 12.50 -1 - - -1
24/10/2018 17:15 NEWC Dominating EACH WAY   0.5 6.87 2.16 -1 - - -1
20/10/2018 20:15 Wolv Cat Royale PLACE   1 11.36 3.37 2.37 - - 2.37
20/10/2018 20:15 Wolv Cat Royale WIN   1 11.36 3.37 -1 - - -1
20/10/2018 18:45 WOLV Epaulement PLACE   1 3.91 1.67 0.67 - - 0.67
20/10/2018 18:45 WOLV Epaulement WIN   1 3.91 1.67 -1 - - -1
20/10/2018 18:15 WOLV Ingleby Molly WIN   1 13.44 3.65 -1 - - -1
20/10/2018 18:15 WOLV Charleston .. PLACE   1 7.88 2.86 -1 - - -1
20/10/2018 18:15 WOLV Ingleby Molly PLACE   1 13.44 3.65 -1 - - -1
20/10/2018 18:15 WOLV Charleston .. WIN   1 7.88 2.86 -1 - - -1
20/10/2018 17:10 Catt Echo PLACE   1 9.21 3.20 -1 - - -1
20/10/2018 17:10 Catt Legalized WIN   1 7.40 2.52 -1 - - -1
20/10/2018 17:10 Catt Echo WIN   1 9.21 3.20 -1 - - -1
20/10/2018 17:10 Catt Legalized PLACE   1 7.40 2.52 -1 - - -1
20/10/2018 16:40 CATT Redrosezorro PLACE   1 10.00 3.98 -1 - - -1
20/10/2018 16:40 CATT Falmouth Li.. PLACE   1 9.40 3.72 -1 - - -1
20/10/2018 16:40 CATT Redrosezorro WIN   1 10.00 3.98 -1 - - -1
20/10/2018 16:40 CATT Falmouth Li.. WIN   1 9.40 3.72 -1 - - -1
20/10/2018 16:30 ASCO Raising Sand PLACE   1 8.40 2.46 -1 - - -1
20/10/2018 16:05 Catt Nibras Galaxy WIN   1 3.78 1.83 -1 - - -1
20/10/2018 16:05 Catt Nibras Galaxy PLACE   1 3.78 1.83 0.83 - - 0.83
19/10/2018 20:45 NEWC Madam Devious WIN   1 10.73 3.77 -1 - - -1
19/10/2018 20:45 NEWC Madam Devious PLACE   1 10.73 3.77 -1 - - -1
19/10/2018 20:15 NEWC Thello WIN   1 8.43 2.87 -1 - - -1
19/10/2018 20:15 NEWC Thello PLACE   1 8.43 2.87 1.87 - - 1.87
19/10/2018 18:45 NEWC Agincourt PLACE   1 36.00 7.00 6 - - 6
19/10/2018 18:45 NEWC Agincourt WIN   1 36.00 7.00 35 - - 35
19/10/2018 17:50 HAYD Al Kout WIN   1 5.30 2.11 -1 - - -1
19/10/2018 17:45 NEWC Seductive WIN   1 5.11 1.76 -1 - - -1
19/10/2018 17:45 NEWC Seductive PLACE   1 5.11 1.76 -1 - - -1
19/10/2018 17:15 HAYD Show Of Str.. WIN   1 9.12 2.85 -1 - - -1
19/10/2018 17:15 HAYD Show Of Str.. PLACE   1 9.12 2.85 1.85 - - 1.85
19/10/2018 17:10 NEWC Ancient Lon.. PLACE   1 18.43 4.46 -1 - - -1
19/10/2018 17:10 NEWC Arendelle PLACE   1 5.40 2.21 -1 - - -1
19/10/2018 17:10 NEWC Ancient Lon.. WIN   1 18.43 4.46 -1 - - -1
19/10/2018 17:10 NEWC Arendelle WIN   1 5.40 2.21 -1 - - -1
19/10/2018 17:05 WINC Glanvilles .. WIN   1 7.17 2.28 -1 - - -1
19/10/2018 17:05 WINC Glanvilles .. PLACE   1 7.17 2.28 -1 - - -1
18/10/2018 18:15 Chel Anycity PLACE   1 4.39 1.59 0.59 - - 0.59
17/10/2018 20:15 Newc Billy Roberts PLACE   1 6.75 2.34 -1 - - -1
17/10/2018 20:15 Newc Billy Roberts WIN   1 6.75 2.34 -1 - - -1
17/10/2018 17:10 Newc Palermo PLACE   1 41.51 11.20 -1 - - -1
17/10/2018 17:10 Newc Palermo WIN   1 41.51 11.20 -1 - - -1
17/10/2018 17:05 BATH Just Anothe.. PLACE   1 188.82 27.91 -1 - - -1
17/10/2018 17:05 BATH Just Anothe.. WIN   1 188.82 27.91 -1 - - -1
17/10/2018 17:05 BATH Sister Celine EACH WAY   0.5 4.89 2.22 -1 - - -1
17/10/2018 16:30 BATH Ascot Day PLACE   1 7.80 2.82 1.82 - - 1.82
17/10/2018 16:30 BATH Pink Phantom WIN   1 22.80 6.60 -1 - - -1
17/10/2018 16:30 BATH Ascot Day WIN   1 7.80 2.82 -1 - - -1
17/10/2018 16:30 BATH Pink Phantom PLACE   1 22.80 6.60 -1 - - -1
16/10/2018 21:15 KEMP Crash Helmet PLACE   1 5.70 2.10 -1 - - -1
16/10/2018 21:15 KEMP Crash Helmet WIN   1 5.70 2.10 -1 - - -1
16/10/2018 19:15 KEMP Formiga WIN   1 6.90 2.42 -1 - - -1
16/10/2018 19:15 KEMP Formiga PLACE   1 6.90 2.42 -1 - - -1
16/10/2018 17:40 LEIC Crystal King WIN   1 6.20 2.29 5.2 - - 5.2
16/10/2018 17:40 LEIC Crystal King PLACE   1 6.20 2.29 1.29 - - 1.29
16/10/2018 17:30 HERE Pottlereagh.. PLACE   1 6.60 2.30 -1 - - -1
16/10/2018 17:30 HERE Pottlereagh.. WIN   1 6.60 2.30 -1 - - -1
16/10/2018 17:10 LEIC Perfect Ref.. PLACE   1 18.86 5.50 4.5 - - 4.5
16/10/2018 17:10 LEIC Perfect Ref.. WIN   1 18.86 5.50 -1 - - -1
16/10/2018 16:50 HUNT Indian Reel WIN   1 48.00 10.50 -1 - - -1
15/10/2018 21:15 KEMP Players Luck PLACE   1 11.50 3.10 -1 - - -1
15/10/2018 21:15 KEMP Lilypad PLACE   1 2.74 1.53 -1 - - -1
15/10/2018 21:15 KEMP Players Luck WIN   1 11.50 3.10 -1 - - -1
15/10/2018 21:15 KEMP Lilypad WIN   1 2.74 1.53 -1 - - -1
15/10/2018 20:45 Kemp Mutanaaseq PLACE   1 8.29 3.45 -1 - - -1
15/10/2018 20:45 Kemp Mutanaaseq WIN   1 8.29 3.45 -1 - - -1
15/10/2018 20:15 KEMP Hanakotoba WIN   1 5.40 2.30 4.4 - - 4.4
15/10/2018 20:15 KEMP Hanakotoba PLACE   1 5.40 2.30 1.3 - - 1.3
14/10/2018 17:10 CHEP Charbel WIN   1 6.74 2.39 5.74 - - 5.74
14/10/2018 17:10 CHEP Charbel PLACE   1 6.74 2.39 1.39 - - 1.39
14/10/2018 16:55 GOOD Alaadel PLACE   1 5.05 1.98 0.98 - - 0.98
14/10/2018 16:55 GOOD Thammin PLACE   1 8.73 3.05 -1 - - -1
14/10/2018 16:55 GOOD Alaadel WIN   1 5.05 1.98 4.05 - - 4.05
14/10/2018 16:55 GOOD Thammin WIN   1 8.73 3.05 -1 - - -1
14/10/2018 16:20 GOOD Midi PLACE   1 8.63 3.18 -1 - - -1
14/10/2018 16:20 GOOD Midi WIN   1 8.63 3.18 -1 - - -1
14/10/2018 15:10 GOOD Extreme Force WIN   1 9.51 3.05 -1 - - -1
14/10/2018 15:10 GOOD Extreme Force PLACE   1 9.51 3.05 2.05 - - 2.05
13/10/2018 19:45 Chel Samphire Co.. PLACE   1 9.68 2.68 -1 - - -1
13/10/2018 19:45 Chel Samphire Co.. WIN   1 9.68 2.68 -1 - - -1
13/10/2018 18:45 Chel Flora Tristan PLACE   1 4.16 1.59 -1 - - -1
13/10/2018 18:45 Chel Flora Tristan WIN   1 4.16 1.59 -1 - - -1
13/10/2018 17:55 Chep Troubled Soul WIN   1 9.11 2.60 -1 - - -1
13/10/2018 17:55 Chep Troubled Soul PLACE   1 9.11 2.60 -1 - - -1
12/10/2018 20:45 WOLV Decoration .. PLACE   1 2.32 1.34 0.34 - - 0.34
12/10/2018 20:45 WOLV Decoration .. WIN   1 2.32 1.34 1.32 - - 1.32
12/10/2018 20:15 WOLV Pact Of Steel WIN   1 26.00 6.40 -1 - - -1
12/10/2018 20:15 WOLV Pact Of Steel PLACE   1 26.00 6.40 5.4 - - 5.4
12/10/2018 19:15 WOLV Charlie D WIN   1 6.20 1.90 5.2 - - 5.2
12/10/2018 19:15 WOLV Charlie D PLACE   1 6.20 1.90 0.9 - - 0.9
11/10/2018 16:45 AYR Havana Go PLACE   1 13.40 4.00 -1 - - -1
11/10/2018 16:45 AYR Havana Go WIN   1 13.40 4.00 -1 - - -1
11/10/2018 16:00 WORC American Hi.. PLACE   1 8.20 2.94 -1 - - -1
11/10/2018 16:00 WORC American Hi.. WIN   1 8.20 2.94 -1 - - -1
11/10/2018 15:40 AYR Long Wood WIN   1 8.66 3.05 -1 - - -1
11/10/2018 15:40 AYR Long Wood PLACE   1 8.66 3.05 -1 - - -1
11/10/2018 15:30 WORC Aquarian PLACE   1 33.26 8.92 -1 - - -1
11/10/2018 15:30 WORC Aquarian WIN   1 33.26 8.92 -1 - - -1
11/10/2018 15:10 AYR Nuns Walk WIN   1 4.70 1.90 -1 - - -1
11/10/2018 15:10 AYR Nuns Walk PLACE   1 4.70 1.90 -1 - - -1
11/10/2018 14:15 BANG Askari PLACE   1 3.58 1.77 0.77 - - 0.77
11/10/2018 14:15 BANG Askari WIN   1 3.58 1.77 -1 - - -1
11/10/2018 14:05 AYR Syndicate PLACE   1 4.10 1.92 -1 - - -1
11/10/2018 14:05 AYR Syndicate WIN   1 4.10 1.92 -1 - - -1
10/10/2018 21:10 KEMP Global Conq.. PLACE   1 8.79 2.62 -1 - - -1
10/10/2018 21:10 KEMP War Glory PLACE   1 5.33 1.82 -1 - - -1
10/10/2018 21:10 KEMP Global Conq.. WIN   1 8.79 2.62 -1 - - -1
10/10/2018 21:10 KEMP War Glory WIN   1 5.33 1.82 -1 - - -1
10/10/2018 20:40 KEMP Chica De La.. PLACE   1 7.42 2.08 1.08 - - 1.08
10/10/2018 20:40 KEMP Chica De La.. WIN   1 7.42 2.08 -1 - - -1
10/10/2018 19:40 KEMP Floria Tosca WIN   1 15.50 5.00 -1 - - -1
10/10/2018 19:40 KEMP Floria Tosca PLACE   1 15.50 5.00 -1 - - -1
10/10/2018 19:10 KEMP La Maquina PLACE   1 11.14 3.57 -1 - - -1
10/10/2018 19:10 KEMP Character W.. WIN   1 17.32 4.70 -1 - - -1
10/10/2018 19:10 KEMP La Maquina WIN   1 11.14 3.57 -1 - - -1
10/10/2018 19:10 KEMP Character W.. PLACE   1 17.32 4.70 -1 - - -1
10/10/2018 16:30 NOTT El Ghazwani PLACE   1 7.00 2.22 -1 - - -1
10/10/2018 16:30 NOTT El Ghazwani WIN   1 7.00 2.22 -1 - - -1
10/10/2018 16:20 SOUT Oscar World PLACE   1 6.20 2.34 -1 - - -1
10/10/2018 16:20 SOUT Asking Ques.. PLACE   1 9.80 3.17 2.17 - - 2.17
10/10/2018 16:20 SOUT Oscar World WIN   1 6.20 2.34 -1 - - -1
10/10/2018 16:20 SOUT Asking Ques.. WIN   1 9.80 3.17 -1 - - -1
10/10/2018 14:50 SOUT Shaiyzar WIN   1 7.00 2.59 -1 - - -1
10/10/2018 14:50 SOUT Torhousemuir WIN   1 9.60 3.20 -1 - - -1
10/10/2018 14:50 SOUT Shaiyzar PLACE   1 7.00 2.59 1.59 - - 1.59
10/10/2018 14:50 SOUT Torhousemuir PLACE   1 9.60 3.20 -1 - - -1
09/10/2018 17:30 LEIC Danecase PLACE   1 8.78 0.00 -1 - - -1
09/10/2018 17:30 LEIC Danecase WIN   1 8.78 0.00 7.78 - - 7.78
08/10/2018 21:15 KEMP Alba Del Sole PLACE   1 8.60 2.93 -1 - - -1
08/10/2018 21:15 KEMP Alba Del Sole WIN   1 8.60 2.93 -1 - - -1
08/10/2018 20:45 KEMP Enthaar WIN   1 4.44 1.77 3.44 - - 3.44
08/10/2018 20:45 KEMP Enthaar PLACE   1 4.44 1.77 0.77 - - 0.77
07/10/2018 17:05 UTTO Polished Rock PLACE   1 2.90 1.47 0.47 - - 0.47
07/10/2018 17:05 UTTO Cernunnos WIN   1 10.65 3.14 -1 - - -1
07/10/2018 17:05 UTTO Polished Rock WIN   1 2.90 1.47 1.9 - - 1.9
07/10/2018 17:05 UTTO Cernunnos PLACE   1 10.65 3.14 2.14 - - 2.14
06/10/2018 20:15 WOLV Liberisque PLACE   1 9.85 3.10 2.1 - - 2.1
06/10/2018 20:15 WOLV Liberisque WIN   1 9.85 3.10 -1 - - -1
06/10/2018 18:45 WOLV Tashaaboh PLACE   1 5.82 1.79 0.79 - - 0.79
06/10/2018 18:45 WOLV Tashaaboh WIN   1 5.82 1.79 -1 - - -1
06/10/2018 17:40 REDC Rose Tinted.. WIN   1 7.91 3.05 -1 - - -1
06/10/2018 17:40 REDC Rose Tinted.. PLACE   1 7.91 3.05 -1 - - -1
06/10/2018 17:35 Newm Naqaawa WIN   1 25.63 6.20 -1 - - -1
06/10/2018 17:35 Newm Naqaawa PLACE   1 25.63 6.20 -1 - - -1
06/10/2018 17:00 NEWM Hamley PLACE   1 14.35 3.79 -1 - - -1
06/10/2018 17:00 NEWM Hamley WIN   1 14.35 3.79 -1 - - -1
06/10/2018 16:25 NEWM Qazyna PLACE   1 3.25 1.57 0.57 - - 0.57
06/10/2018 16:25 NEWM Qazyna WIN   1 3.25 1.57 -1 - - -1
05/10/2018 20:15 WOLV Thistimelas.. PLACE   1 2.90 1.59 -1 - - -1
05/10/2018 20:15 WOLV Thistimelas.. WIN   1 2.90 1.59 -1 - - -1
05/10/2018 19:45 WOLV Barnaby Brook PLACE   1 25.91 4.88 -1 - - -1
05/10/2018 19:45 WOLV Done Deal PLACE   1 7.40 2.13 -1 - - -1
05/10/2018 19:45 WOLV Barnaby Brook WIN   1 25.91 4.88 -1 - - -1
05/10/2018 19:45 WOLV Done Deal WIN   1 7.40 2.13 -1 - - -1
05/10/2018 18:15 WOLV Brockey Rise WIN   1 10.81 3.25 -1 - - -1
05/10/2018 18:15 WOLV Hula Girl PLACE   1 6.41 2.30 1.3 - - 1.3
05/10/2018 18:15 WOLV Brockey Rise PLACE   1 10.81 3.25 -1 - - -1
05/10/2018 18:15 WOLV Hula Girl WIN   1 6.41 2.30 -1 - - -1
05/10/2018 17:10 Hexh Equus Pandora PLACE   1 4.00 1.64 0.64 - - 0.64
05/10/2018 17:10 Hexh Equus Pandora WIN   1 4.00 1.64 -1 - - -1
05/10/2018 16:10 ASCO African Jazz PLACE   1 6.40 2.34 1.34 - - 1.34
05/10/2018 16:10 ASCO What A Welc.. WIN   1 5.88 2.16 4.88 - - 4.88
05/10/2018 16:10 ASCO African Jazz WIN   1 6.40 2.34 -1 - - -1
05/10/2018 16:10 ASCO What A Welc.. PLACE   1 5.88 2.16 1.16 - - 1.16
05/10/2018 15:25 HEXH Classical M.. WIN   1 17.19 3.30 -1 - - -1
05/10/2018 15:25 HEXH Classical M.. PLACE   1 17.19 3.30 2.3 - - 2.3
05/10/2018 15:00 ASCO Flavius Titus PLACE   1 21.45 5.20 -1 - - -1
05/10/2018 15:00 ASCO Missy Misch.. PLACE   1 13.85 3.75 -1 - - -1
05/10/2018 15:00 ASCO Flavius Titus WIN   1 21.45 5.20 -1 - - -1
05/10/2018 15:00 ASCO Missy Misch.. WIN   1 13.85 3.75 -1 - - -1
05/10/2018 14:50 HEXH Katy Royal WIN   1 7.80 2.54 -1 - - -1
05/10/2018 14:50 HEXH Katy Royal PLACE   1 7.80 2.54 -1 - - -1
04/10/2018 20:45 Chel Roys Dream WIN   1 16.18 3.90 -1 - - -1
04/10/2018 20:45 Chel Roys Dream PLACE   1 16.18 3.90 -1 - - -1
04/10/2018 20:15 Chel Lily Ash WIN   1 12.00 3.51 -1 - - -1
04/10/2018 20:15 Chel Lily Ash PLACE   1 12.00 3.51 -1 - - -1
04/10/2018 19:15 Chel Quality See.. PLACE   1 5.00 1.89 -1 - - -1
04/10/2018 19:15 Chel Quality See.. WIN   1 5.00 1.89 -1 - - -1
04/10/2018 17:35 LING Aaliya PLACE   1 10.58 3.24 -1 - - -1
04/10/2018 17:35 LING Staffa PLACE   1 9.82 2.89 -1 - - -1
04/10/2018 17:35 LING Aaliya WIN   1 10.58 3.24 -1 - - -1
04/10/2018 17:35 LING Staffa WIN   1 9.82 2.89 -1 - - -1
04/10/2018 17:05 LING Voluminous WIN   1 7.85 2.42 -1 - - -1
04/10/2018 17:05 LING Voluminous PLACE   1 7.85 2.42 1.42 - - 1.42
03/10/2018 20:30 NEWC Displaying .. WIN   1 10.58 3.12 -1 - - -1
03/10/2018 20:30 NEWC Displaying .. PLACE   1 10.58 3.12 -1 - - -1
03/10/2018 19:30 NEWC Eternal Des.. PLACE   1 9.09 2.84 -1 - - -1
03/10/2018 19:30 NEWC Sir Domino PLACE   1 8.39 2.78 -1 - - -1
03/10/2018 19:30 NEWC Eternal Des.. WIN   1 9.09 2.84 -1 - - -1
03/10/2018 19:30 NEWC Sir Domino WIN   1 8.39 2.78 -1 - - -1
03/10/2018 18:00 NEWC War Departm.. PLACE   1 4.30 1.88 0.88 - - 0.88
03/10/2018 18:00 NEWC War Departm.. WIN   1 4.30 1.88 3.3 - - 3.3
01/10/2018 21:15 KEMP Trinitas WIN   1 4.26 1.92 -1 - - -1
01/10/2018 21:15 KEMP Trinitas PLACE   1 4.26 1.92 -1 - - -1
01/10/2018 20:15 Kemp Parting Clo.. WIN   1 11.50 3.48 -1 - - -1
01/10/2018 20:15 Kemp Parting Clo.. PLACE   1 11.50 3.48 -1 - - -1
01/10/2018 17:10 CATT Cruel Cleve.. PLACE   1 5.71 2.54 -1 - - -1
01/10/2018 17:10 CATT Cruel Cleve.. WIN   1 5.71 2.54 -1 - - -1
01/10/2018 15:35 Catt Paco Escostar PLACE   1 10.47 2.87 -1 - - -1
01/10/2018 15:35 Catt Paco Escostar WIN   1 10.47 2.87 -1 - - -1
Cumulative Profit Over Selected Time Frame: 0.85 points     0.85 points



Additional Info:

Buy Horse Racing Tips  |  Free Horse Racing Tips  |  Free Bets